Repülésmeteorológia

  • METAR LHSM 250715Z 33011KT 9999 -RA FEW010 BKN043 14/13 Q1020
  • METAR LHSM 250645Z 34009KT 9999 -RADZ NSC 14/13 Q1020=
  • METAR LHSM 250615Z 33009KT 9999 -RADZ NSC 13/12 Q1020=
  • METAR LHSM 250545Z 32008KT 9999 -RA NSC 13/12 Q1019=
  • METAR LHSM 250515Z 33007KT CAVOK 13/11 Q1019=

  • TAF LHSM 250515Z 2506/2515 33007KT 9999 SCT025 BKN080
  • TAF LHSM 241115Z 2412/2421 VRB03KT CAVOK PROB30 TEMPO 2412/2417
  • TAF LHSM 240815Z 2409/2418 33007KT 9999 SCT033 BKN070
  • TAF LHSM 240515Z 2406/2415 36004KT 9999 BKN040 BKN080
  • TAF LHSM 231415Z 2315/2324 32008KT CAVOK=